Time;durP1;ratioP1;P1;durP2;ratioP2;P2;SDS_P1;SDS_P2;PMS_P1;PMS_P2;Temp;Humidity;BMP_temperature;BMP_pressure;BME280_temperature;BME280_humidity;BME280_pressure;Samples;Min_cycle;Max_cycle;Signal;HPM_P1;HPM_P2
2022/01/20 00:01:10;;;;;;;;;;;;;;;-2.49;100.00;99353.41;1714643;83;20097;-67
2022/01/20 00:03:30;;;;;;;;;;;;;;;-2.48;100.00;99360.42;1712438;83;20124;-67
2022/01/20 00:27:38;;;;;;;;;;;;;;;-2.41;100.00;99338.78;1714886;83;20119;-67
2022/01/20 00:33:02;;;;;;;;;;;;;;;-2.39;100.00;99340.72;1715067;83;20122;-66
2022/01/20 00:37:14;;;;;;;;;;;;;;;-2.39;100.00;99334.81;1690419;83;20109;-66
2022/01/20 00:37:59;;;;;;;;;;;;;;;-2.39;100.00;99332.13;1711056;83;21073;-66
2022/01/20 00:40:25;;;;;;;;;;;;;;;-2.39;100.00;99319.20;1715029;83;20086;-66
2022/01/20 00:42:51;;;;;;;;;;;;;;;-2.40;100.00;99319.73;1715135;83;20094;-65
2022/01/20 00:45:18;;;;;;;;;;;;;;;-2.40;100.00;99317.05;1715068;83;20101;-65
2022/01/20 00:47:44;;;;;;;;;;;;;;;-2.41;100.00;99308.69;1715279;83;20154;-66
2022/01/20 00:50:11;;;;;;;;;;;;;;;-2.41;100.00;99304.66;1714983;83;21150;-66
2022/01/20 00:52:37;;;;;;;;;;;;;;;-2.41;100.00;99299.28;1715002;83;21671;-66
2022/01/20 00:55:05;;;;;;;;;;;;;;;-2.41;100.00;99295.25;1715175;83;20436;-66
2022/01/20 00:57:31;;;;;;;;;;;;;;;-2.39;100.00;99299.05;1715333;83;20089;-66
2022/01/20 00:59:58;;;;;;;;;;;;;;;-2.38;100.00;99297.99;1715005;83;20098;-66
2022/01/20 01:02:24;;;;;;;;;;;;;;;-2.38;100.00;99294.77;1715006;83;21148;-65
2022/01/20 01:04:51;;;;;;;;;;;;;;;-2.36;100.00;99289.16;1714879;83;20121;-66
2022/01/20 01:09:54;;;;;;;;;;;;;;;-2.35;100.00;99288.11;1684922;83;20086;-65
2022/01/20 01:12:32;;;;;;;;;;;;;;;-2.33;100.00;99283.31;1715010;83;20176;-65
2022/01/20 01:14:52;;;;;;;;;;;;;;;-2.33;100.00;99275.24;1712853;83;21234;-65
2022/01/20 01:20:12;;;;;;;;;;;;;;;-2.33;100.00;99269.86;1715283;83;20105;-67
2022/01/20 01:22:30;;;;;;;;;;;;;;;-2.31;100.00;99275.79;1712627;83;20515;-68
2022/01/20 01:24:55;;;;;;;;;;;;;;;-2.30;100.00;99267.20;1690524;83;20098;-68
2022/01/20 01:27:23;;;;;;;;;;;;;;;-2.31;100.00;99263.69;1715161;83;21992;-66
2022/01/20 01:32:32;;;;;;;;;;;;;;;-2.30;100.00;99250.53;1715222;83;20503;-66
2022/01/20 01:34:53;;;;;;;;;;;;;;;-2.31;100.00;99250.25;1713860;83;20078;-66
2022/01/20 01:39:54;;;;;;;;;;;;;;;-2.32;100.00;99237.89;1689608;85;21160;-66
2022/01/20 01:42:26;;;;;;;;;;;;;;;-2.32;100.00;99227.14;1689566;85;20436;-66
2022/01/20 01:44:49;;;;;;;;;;;;;;;-2.33;100.00;99221.47;1689400;84;20090;-66
2022/01/20 01:47:16;;;;;;;;;;;;;;;-2.32;100.00;99229.83;1689548;85;20610;-66
2022/01/20 01:49:43;;;;;;;;;;;;;;;-2.32;100.00;99225.79;1689552;85;20102;-66
2022/01/20 01:52:10;;;;;;;;;;;;;;;-2.32;100.00;99227.14;1689584;85;20444;-67
2022/01/20 01:54:36;;;;;;;;;;;;;;;-2.31;100.00;99226.05;1689501;84;20440;-67
2022/01/20 01:57:06;;;;;;;;;;;;;;;-2.31;100.00;99226.05;1689610;85;20162;-67
2022/01/20 01:59:33;;;;;;;;;;;;;;;-2.32;100.00;99219.07;1689642;84;20618;-67
2022/01/20 02:02:02;;;;;;;;;;;;;;;-2.30;100.00;99216.92;1689794;84;20098;-67
2022/01/20 02:04:29;;;;;;;;;;;;;;;-2.29;100.00;99216.40;1689560;85;21123;-67
2022/01/20 02:20:39;;;;;;;;;;;;;;;-2.34;100.00;99193.77;1689717;84;20458;-67
2022/01/20 02:23:07;;;;;;;;;;;;;;;-2.35;100.00;99193.48;1679887;85;20433;-67
2022/01/20 02:25:35;;;;;;;;;;;;;;;-2.37;100.00;99181.33;1689497;85;20447;-67
2022/01/20 02:28:07;;;;;;;;;;;;;;;-2.40;100.00;99180.47;1689503;85;20150;-67
2022/01/20 02:30:34;;;;;;;;;;;;;;;-2.45;100.00;99180.38;1689600;85;21101;-67
2022/01/20 02:33:03;;;;;;;;;;;;;;;-2.51;100.00;99179.98;1689470;85;20086;-67
2022/01/20 02:35:32;;;;;;;;;;;;;;;-2.56;100.00;99180.70;1689566;84;20101;-67
2022/01/20 02:38:17;;;;;;;;;;;;;;;-2.58;100.00;99172.59;1689387;85;20956;-67
2022/01/20 02:45:56;;;;;;;;;;;;;;;-2.70;100.00;99165.38;1689570;85;20109;-69
2022/01/20 02:48:23;;;;;;;;;;;;;;;-2.76;100.00;99164.99;1689587;85;20475;-67
2022/01/20 02:50:49;;;;;;;;;;;;;;;-2.79;100.00;99163.31;1689600;85;20111;-66
2022/01/20 02:53:15;;;;;;;;;;;;;;;-2.84;100.00;99157.83;1689509;85;20098;-66
2022/01/20 02:55:42;;;;;;;;;;;;;;;-2.88;100.00;99160.18;1689513;85;21198;-66
2022/01/20 02:58:08;;;;;;;;;;;;;;;-2.92;100.00;99160.92;1689500;85;20102;-66
2022/01/20 03:00:35;;;;;;;;;;;;;;;-2.96;100.00;99154.39;1689595;85;20117;-66
2022/01/20 03:03:01;;;;;;;;;;;;;;;-3.01;100.00;99145.17;1693404;83;20408;-66
2022/01/20 03:05:31;;;;;;;;;;;;;;;-3.04;100.00;99145.65;1711929;82;20096;-66
2022/01/20 03:08:00;;;;;;;;;;;;;;;-3.08;100.00;99140.46;1693821;83;21205;-66
2022/01/20 03:10:28;;;;;;;;;;;;;;;-3.11;100.00;99131.54;1689428;85;20098;-66
2022/01/20 03:12:56;;;;;;;;;;;;;;;-3.15;100.00;99126.88;1689861;85;20074;-66
2022/01/20 03:15:24;;;;;;;;;;;;;;;-3.19;100.00;99121.69;1689458;85;20931;-66
2022/01/20 03:17:51;;;;;;;;;;;;;;;-3.21;100.00;99122.45;1689531;84;20082;-69
2022/01/20 03:20:18;;;;;;;;;;;;;;;-3.24;100.00;99121.58;1689557;85;21141;-69
2022/01/20 03:22:44;;;;;;;;;;;;;;;-3.28;100.00;99112.37;1689528;85;20115;-68
2022/01/20 03:25:15;;;;;;;;;;;;;;;-3.31;100.00;99108.29;1689542;84;20117;-67
2022/01/20 03:27:42;;;;;;;;;;;;;;;-3.34;100.00;99109.58;1689645;85;20421;-67
2022/01/20 03:30:09;;;;;;;;;;;;;;;-3.38;100.00;99101.70;1689622;85;20113;-68
2022/01/20 03:32:36;;;;;;;;;;;;;;;-3.41;100.00;99103.52;1689505;85;21202;-68
2022/01/20 03:35:08;;;;;;;;;;;;;;;-3.44;100.00;99097.80;1689549;85;20094;-66
2022/01/20 03:37:35;;;;;;;;;;;;;;;-3.48;100.00;99092.13;1689646;84;20106;-66
2022/01/20 03:40:07;;;;;;;;;;;;;;;-3.50;100.00;99091.55;1689569;84;20086;-66
2022/01/20 03:42:34;;;;;;;;;;;;;;;-3.53;100.00;99083.96;1689557;84;20098;-66
2022/01/20 03:45:00;;;;;;;;;;;;;;;-3.56;100.00;99080.41;1702698;83;21139;-66
2022/01/20 03:47:26;;;;;;;;;;;;;;;-3.57;100.00;99081.98;1692797;82;20122;-65
2022/01/20 03:52:29;;;;;;;;;;;;;;;-3.61;100.00;99072.25;1689517;85;20101;-66
2022/01/20 03:54:55;;;;;;;;;;;;;;;-3.64;100.00;99070.03;1689735;83;20425;-66
2022/01/20 03:57:23;;;;;;;;;;;;;;;-3.68;100.00;99066.19;1689077;83;21273;-65
2022/01/20 04:00:05;;;;;;;;;;;;;;;-3.70;100.00;99066.95;1688144;84;20085;-66
2022/01/20 04:02:41;;;;;;;;;;;;;;;-3.72;100.00;99063.69;1689847;85;20102;-65
2022/01/20 04:05:09;;;;;;;;;;;;;;;-3.74;100.00;99065.78;1689044;84;20102;-65
2022/01/20 04:07:36;;;;;;;;;;;;;;;-3.79;100.00;99057.10;1699951;83;20118;-66
2022/01/20 04:10:05;;;;;;;;;;;;;;;-3.80;100.00;99050.63;1688049;83;20850;-66
2022/01/20 04:12:31;;;;;;;;;;;;;;;-3.83;100.00;99045.20;1701723;83;20118;-66
2022/01/20 04:15:05;;;;;;;;;;;;;;;-3.85;100.00;99049.17;1701837;83;20121;-66
2022/01/20 04:17:28;;;;;;;;;;;;;;;-3.88;100.00;99050.98;1703765;82;21542;-66
2022/01/20 04:19:54;;;;;;;;;;;;;;;-3.90;100.00;99041.02;1690071;83;20078;-66
2022/01/20 04:22:20;;;;;;;;;;;;;;;-3.93;100.00;99038.80;1709455;83;23313;-65
2022/01/20 04:24:47;;;;;;;;;;;;;;;-3.96;100.00;99036.06;1718459;83;20168;-65
2022/01/20 04:27:13;;;;;;;;;;;;;;;-3.97;100.00;99037.11;1718390;83;20112;-66
2022/01/20 04:29:40;;;;;;;;;;;;;;;-4.00;100.00;99031.69;1718378;82;22007;-66
2022/01/20 04:32:07;;;;;;;;;;;;;;;-4.03;100.00;99032.16;1718432;83;20084;-66
2022/01/20 04:34:34;;;;;;;;;;;;;;;-4.04;100.00;99033.20;1718446;83;21091;-66
2022/01/20 04:37:04;;;;;;;;;;;;;;;-4.05;100.00;99034.28;1718369;83;20095;-66
2022/01/20 04:39:32;;;;;;;;;;;;;;;-4.05;100.00;99029.45;1739681;82;20095;-66
2022/01/20 04:41:58;;;;;;;;;;;;;;;-4.08;100.00;99029.91;1744706;82;20119;-67
2022/01/20 04:44:38;;;;;;;;;;;;;;;-4.09;100.00;99033.13;1744678;82;20438;-68
2022/01/20 04:57:34;;;;;;;;;;;;;;;-4.13;100.00;99020.42;1744701;81;20091;-67
2022/01/20 05:00:00;;;;;;;;;;;;;;;-4.15;100.00;99014.47;1744685;81;21129;-67
2022/01/20 05:02:29;;;;;;;;;;;;;;;-4.16;100.00;99015.00;1740113;81;20190;-67
2022/01/20 05:05:00;;;;;;;;;;;;;;;-4.18;100.00;99010.39;1729422;82;20109;-68
2022/01/20 05:07:46;;;;;;;;;;;;;;;-4.19;100.00;99003.40;1730198;82;20586;-66
2022/01/20 05:10:13;;;;;;;;;;;;;;;-4.21;100.00;99000.14;1727919;82;20181;-66
2022/01/20 05:13:32;;;;;;;;;;;;;;;-4.22;100.00;98994.48;1728920;81;21154;-66
2022/01/20 05:15:13;;;;;;;;;;;;;;;-4.24;100.00;99002.47;1709728;83;20125;-65
2022/01/20 05:17:39;;;;;;;;;;;;;;;-4.26;100.00;98996.52;1714981;83;20097;-65
2022/01/20 05:20:08;;;;;;;;;;;;;;;-4.27;100.00;98999.73;1715248;83;20121;-66
2022/01/20 05:22:35;;;;;;;;;;;;;;;-4.29;100.00;98997.80;1715091;83;20121;-66
2022/01/20 05:25:04;;;;;;;;;;;;;;;-4.32;100.00;99002.28;1727243;82;21160;-67
2022/01/20 05:27:31;;;;;;;;;;;;;;;-4.33;100.00;99002.81;1737843;82;20083;-67
2022/01/20 05:29:57;;;;;;;;;;;;;;;-4.35;100.00;99001.41;1744708;82;20118;-68
2022/01/20 05:32:25;;;;;;;;;;;;;;;-4.37;100.00;98994.13;1744579;82;20503;-67
2022/01/20 05:34:52;;;;;;;;;;;;;;;-4.38;100.00;98993.84;1744789;81;20083;-67
2022/01/20 05:37:18;;;;;;;;;;;;;;;-4.40;100.00;98991.91;1744613;81;21137;-67
2022/01/20 05:39:45;;;;;;;;;;;;;;;-4.40;100.00;98987.37;1744561;82;20075;-67
2022/01/20 05:42:13;;;;;;;;;;;;;;;-4.42;100.00;98987.31;1744796;81;20458;-67
2022/01/20 05:44:50;;;;;;;;;;;;;;;-4.44;100.00;98990.75;1744742;81;20115;-67
2022/01/20 05:47:15;;;;;;;;;;;;;;;-4.47;100.00;98995.23;1744719;81;20466;-67
2022/01/20 05:49:52;;;;;;;;;;;;;;;-4.50;100.00;98994.34;1734455;82;21196;-67
2022/01/20 05:52:19;;;;;;;;;;;;;;;-4.52;100.00;98995.11;1744582;82;20115;-66
2022/01/20 05:54:46;;;;;;;;;;;;;;;-4.54;100.00;98995.86;1744527;82;20087;-66
2022/01/20 05:57:12;;;;;;;;;;;;;;;-4.55;100.00;98996.38;1744565;82;20937;-66
2022/01/20 05:59:40;;;;;;;;;;;;;;;-4.56;100.00;98993.41;1744771;81;20104;-66
2022/01/20 06:02:28;;;;;;;;;;;;;;;-4.58;100.00;98986.66;1744799;82;21774;-66
2022/01/20 06:04:38;;;;;;;;;;;;;;;-4.57;100.00;98988.28;1744324;82;20100;-67
2022/01/20 06:07:04;;;;;;;;;;;;;;;-4.58;100.00;98974.08;1744885;81;20437;-66
2022/01/20 06:09:31;;;;;;;;;;;;;;;-4.58;100.00;98966.56;1744675;81;20095;-66
2022/01/20 06:11:58;;;;;;;;;;;;;;;-4.58;100.00;98967.91;1744710;82;20115;-65
2022/01/20 06:14:28;;;;;;;;;;;;;;;-4.58;100.00;98967.38;1744945;82;21138;-66
2022/01/20 06:16:52;;;;;;;;;;;;;;;-4.60;100.00;98962.78;1719264;82;20296;-66
2022/01/20 06:19:19;;;;;;;;;;;;;;;-4.57;100.00;98954.80;1744610;82;20119;-66
2022/01/20 06:21:47;;;;;;;;;;;;;;;-4.57;100.00;98946.23;1744611;81;21936;-66
2022/01/20 06:24:14;;;;;;;;;;;;;;;-4.56;100.00;98945.19;1745016;82;20095;-66
2022/01/20 06:26:41;;;;;;;;;;;;;;;-4.54;100.00;98951.66;1744569;82;21065;-66
2022/01/20 06:29:07;;;;;;;;;;;;;;;-4.53;100.00;98937.22;1744994;82;20449;-65
2022/01/20 06:31:34;;;;;;;;;;;;;;;-4.50;100.00;98943.45;1744757;82;20425;-65
2022/01/20 06:34:01;;;;;;;;;;;;;;;-4.47;100.00;98955.86;1744618;82;20147;-65
2022/01/20 06:36:27;;;;;;;;;;;;;;;-4.43;100.00;98954.34;1744599;82;20410;-65
2022/01/20 06:38:54;;;;;;;;;;;;;;;-4.38;100.00;98949.10;1736627;82;21071;-65
2022/01/20 06:41:21;;;;;;;;;;;;;;;-4.34;100.00;98942.23;1718352;83;20439;-65
2022/01/20 06:43:47;;;;;;;;;;;;;;;-4.29;100.00;98926.78;1718260;83;20088;-65
2022/01/20 06:46:14;;;;;;;;;;;;;;;-4.22;100.00;98922.12;1718303;83;20122;-65
2022/01/20 06:48:51;;;;;;;;;;;;;;;-4.18;100.00;98913.90;1714044;82;20095;-65
2022/01/20 06:51:19;;;;;;;;;;;;;;;-4.12;100.00;98907.59;1718123;82;21149;-65
2022/01/20 06:53:46;;;;;;;;;;;;;;;-4.05;99.85;98900.23;1718297;83;20123;-65
2022/01/20 06:56:12;;;;;;;;;;;;;;;-3.97;99.42;98904.39;1718455;83;20415;-65
2022/01/20 06:58:39;;;;;;;;;;;;;;;-3.89;98.65;98900.52;1718247;83;20127;-66
2022/01/20 07:01:06;;;;;;;;;;;;;;;-3.71;98.02;98899.00;1718230;83;20120;-66
2022/01/20 07:03:32;;;;;;;;;;;;;;;-3.43;97.49;98887.43;1718355;83;21120;-67
2022/01/20 07:05:59;;;;;;;;;;;;;;;-3.15;96.24;98886.58;1718373;83;20167;-67
2022/01/20 07:08:27;;;;;;;;;;;;;;;-3.02;94.96;98889.77;1718468;83;20438;-68
2022/01/20 07:10:53;;;;;;;;;;;;;;;-2.98;93.70;98885.25;1709465;83;20119;-68
2022/01/20 07:13:21;;;;;;;;;;;;;;;-2.91;92.45;98885.38;1689652;84;20433;-68
2022/01/20 07:15:49;;;;;;;;;;;;;;;-2.87;92.28;98878.95;1690402;83;39071;-68
2022/01/20 07:18:16;;;;;;;;;;;;;;;-2.79;91.99;98883.39;1705224;83;20118;-67
2022/01/20 07:20:43;;;;;;;;;;;;;;;-2.57;90.98;98892.05;1689583;85;20188;-67
2022/01/20 07:23:13;;;;;;;;;;;;;;;-2.37;89.35;98901.75;1688972;84;20472;-67
2022/01/20 07:25:47;;;;;;;;;;;;;;;-2.33;89.27;98892.13;1686805;84;20432;-67
2022/01/20 07:28:15;;;;;;;;;;;;;;;-2.39;88.04;98892.59;1689496;84;21231;-67
2022/01/20 07:30:42;;;;;;;;;;;;;;;-2.38;89.07;98891.53;1689626;85;20276;-67
2022/01/20 07:33:10;;;;;;;;;;;;;;;-2.24;87.92;98896.52;1689686;85;20459;-67
2022/01/20 07:35:38;;;;;;;;;;;;;;;-2.12;87.43;98883.78;1689517;85;20102;-67
2022/01/20 07:38:05;;;;;;;;;;;;;;;-1.90;86.68;98883.26;1689714;84;20086;-67
2022/01/20 07:40:34;;;;;;;;;;;;;;;-1.72;84.97;98884.78;1689016;84;21184;-68
2022/01/20 07:43:00;;;;;;;;;;;;;;;-1.56;85.38;98885.23;1688410;85;20110;-69
2022/01/20 07:45:46;;;;;;;;;;;;;;;-1.42;83.32;98885.65;1689448;85;20122;-68
2022/01/20 07:48:24;;;;;;;;;;;;;;;-1.35;82.79;98892.45;1689292;84;20125;-70
2022/01/20 07:50:52;;;;;;;;;;;;;;;-1.29;82.71;98889.81;1689245;84;20101;-66
2022/01/20 07:53:20;;;;;;;;;;;;;;;-1.17;81.17;98886.44;1689446;84;21240;-67
2022/01/20 07:55:47;;;;;;;;;;;;;;;-1.00;80.25;98883.06;1688180;85;20114;-68
2022/01/20 07:58:14;;;;;;;;;;;;;;;-0.76;81.38;98885.69;1689425;85;20138;-71
2022/01/20 08:00:42;;;;;;;;;;;;;;;-0.37;79.46;98880.00;1689417;84;20461;-74
2022/01/20 08:03:08;;;;;;;;;;;;;;;-0.07;77.37;98857.77;1689559;85;20086;-68
2022/01/20 08:05:36;;;;;;;;;;;;;;;0.17;77.87;98854.88;1688926;84;21080;-69
2022/01/20 08:08:03;;;;;;;;;;;;;;;0.45;77.21;98836.06;1689440;84;20098;-70
2022/01/20 08:10:30;;;;;;;;;;;;;;;0.71;73.46;98839.59;1689443;84;20142;-73
2022/01/20 08:12:57;;;;;;;;;;;;;;;0.81;72.13;98832.84;1689670;85;20145;-70
2022/01/20 08:15:25;;;;;;;;;;;;;;;0.88;72.92;98844.20;1689324;84;20421;-67
2022/01/20 08:18:03;;;;;;;;;;;;;;;1.05;72.44;98841.23;1689662;84;21156;-69
2022/01/20 08:20:31;;;;;;;;;;;;;;;1.24;72.17;98853.62;1689483;85;20121;-68
2022/01/20 08:23:02;;;;;;;;;;;;;;;1.28;71.04;98852.01;1689854;84;20127;-65
2022/01/20 08:25:28;;;;;;;;;;;;;;;1.12;68.62;98855.83;1689480;85;20094;-66
2022/01/20 08:27:55;;;;;;;;;;;;;;;0.84;69.00;98865.27;1689431;85;20157;-65
2022/01/20 08:30:23;;;;;;;;;;;;;;;0.78;67.98;98858.23;1689479;85;21870;-65
2022/01/20 08:32:51;;;;;;;;;;;;;;;0.90;68.78;98865.55;1689583;85;20437;-69
2022/01/20 08:35:35;;;;;;;;;;;;;;;1.15;68.13;98853.94;1689542;85;20436;-71
2022/01/20 08:38:07;;;;;;;;;;;;;;;1.33;65.36;98852.00;1689440;84;20588;-74
2022/01/20 08:40:35;;;;;;;;;;;;;;;1.28;65.30;98866.88;1707192;83;20129;-70
2022/01/20 08:43:02;;;;;;;;;;;;;;;1.18;65.82;98859.58;1719200;82;21067;-86
2022/01/20 08:45:31;;;;;;;;;;;;;;;1.20;65.04;98870.94;1743668;82;20083;-68
2022/01/20 08:47:59;;;;;;;;;;;;;;;1.41;65.52;98849.30;1744568;82;20099;-67
2022/01/20 08:50:29;;;;;;;;;;;;;;;1.78;66.07;98846.21;1744754;81;20446;-67
2022/01/20 08:52:56;;;;;;;;;;;;;;;2.26;63.14;98840.07;1744540;82;20088;-69
2022/01/20 08:55:23;;;;;;;;;;;;;;;2.55;62.73;98837.45;1744450;82;21065;-66
2022/01/20 08:57:52;;;;;;;;;;;;;;;2.76;60.88;98842.74;1744357;81;20111;-66
2022/01/20 09:00:20;;;;;;;;;;;;;;;2.78;60.53;98831.88;1744665;81;20099;-67
2022/01/20 09:03:00;;;;;;;;;;;;;;;2.87;60.64;98837.52;1744572;81;20071;-68
2022/01/20 09:05:27;;;;;;;;;;;;;;;3.01;59.79;98830.88;1717638;82;20092;-68
2022/01/20 09:08:04;;;;;;;;;;;;;;;3.19;59.96;98828.28;1704064;83;21193;-77
2022/01/20 09:10:37;;;;;;;;;;;;;;;3.34;57.84;98825.98;1715085;83;20101;-77
2022/01/20 09:15:47;;;;;;;;;;;;;;;3.44;56.88;98812.31;1715017;83;20142;-76
2022/01/20 09:18:19;;;;;;;;;;;;;;;3.65;57.89;98805.55;1717334;82;20111;-77
2022/01/20 09:20:50;;;;;;;;;;;;;;;3.95;57.71;98800.32;1727684;82;21145;-76
2022/01/20 09:23:18;;;;;;;;;;;;;;;4.18;55.59;98786.42;1730317;82;20171;-76
2022/01/20 09:25:51;;;;;;;;;;;;;;;4.40;57.03;98774.98;1722906;82;20133;-77
2022/01/20 09:28:20;;;;;;;;;;;;;;;4.65;53.48;98785.45;1714178;83;21898;-76
2022/01/20 09:30:49;;;;;;;;;;;;;;;4.61;54.55;98773.58;1715442;83;20085;-77
2022/01/20 09:33:27;;;;;;;;;;;;;;;4.67;53.82;98766.67;1715330;83;21120;-76
2022/01/20 09:35:53;;;;;;;;;;;;;;;4.76;54.51;98763.55;1714828;83;21685;-77
2022/01/20 09:38:27;;;;;;;;;;;;;;;4.89;53.06;98749.19;1714919;83;20127;-76
2022/01/20 09:40:54;;;;;;;;;;;;;;;4.91;52.74;98740.18;1697044;82;20188;-78
2022/01/20 09:43:22;;;;;;;;;;;;;;;5.00;53.63;98736.23;1718592;81;20174;-78
2022/01/20 09:45:53;;;;;;;;;;;;;;;5.13;51.61;98732.73;1728451;82;21159;-77
2022/01/20 09:48:26;;;;;;;;;;;;;;;5.09;51.82;98728.44;1716524;82;20162;-78
2022/01/20 09:51:18;;;;;;;;;;;;;;;5.05;52.71;98721.17;1735930;82;20143;-74
2022/01/20 09:53:49;;;;;;;;;;;;;;;5.27;51.86;98715.84;1734256;82;20515;-75
2022/01/20 09:56:20;;;;;;;;;;;;;;;5.42;51.18;98703.86;1733840;82;20157;-76
2022/01/20 09:58:49;;;;;;;;;;;;;;;5.54;51.55;98701.44;1717332;82;20122;-75
2022/01/20 10:01:50;;;;;;;;;;;;;;;5.61;51.27;98694.48;1735940;82;20464;-76
2022/01/20 10:04:37;;;;;;;;;;;;;;;5.69;51.72;98699.77;1735026;82;20130;-75
2022/01/20 10:07:14;;;;;;;;;;;;;;;5.71;50.47;98687.22;1734928;82;20135;-74
2022/01/20 10:09:52;;;;;;;;;;;;;;;5.70;49.69;98690.49;1716125;82;20453;-76
2022/01/20 10:12:25;;;;;;;;;;;;;;;5.43;50.00;98680.97;1735137;82;21249;-76
2022/01/20 10:15:12;;;;;;;;;;;;;;;5.30;51.57;98680.67;1731756;81;20154;-76
2022/01/20 10:17:48;;;;;;;;;;;;;;;5.46;51.05;98680.37;1682775;84;20096;-76
2022/01/20 10:20:21;;;;;;;;;;;;;;;5.54;50.44;98674.22;1686253;84;20126;-76
2022/01/20 10:22:58;;;;;;;;;;;;;;;5.54;51.39;98668.77;1721962;83;20082;-76
2022/01/20 10:25:44;;;;;;;;;;;;;;;5.56;50.88;98659.19;1723493;83;21847;-75
2022/01/20 10:28:32;;;;;;;;;;;;;;;5.59;50.92;98656.42;1723169;82;20083;-78
2022/01/20 10:31:11;;;;;;;;;;;;;;;5.65;49.88;98648.39;1715258;83;20414;-77
2022/01/20 10:33:42;;;;;;;;;;;;;;;5.47;50.26;98646.04;1694099;83;20441;-76
2022/01/20 10:36:14;;;;;;;;;;;;;;;5.38;51.23;98645.69;1723179;83;20119;-77
2022/01/20 10:39:02;;;;;;;;;;;;;;;5.46;51.50;98656.67;1718674;83;21984;-76
2022/01/20 10:41:33;;;;;;;;;;;;;;;5.51;51.05;98650.32;1714110;82;20119;-74
2022/01/20 10:44:09;;;;;;;;;;;;;;;5.44;50.84;98654.81;1712165;84;20111;-76
2022/01/20 10:46:53;;;;;;;;;;;;;;;5.30;51.74;98632.23;1704413;84;20433;-75
2022/01/20 10:49:31;;;;;;;;;;;;;;;5.46;51.94;98644.98;1667387;85;20122;-75
2022/01/20 10:52:03;;;;;;;;;;;;;;;5.69;51.01;98634.42;1683761;84;21157;-76
2022/01/20 10:54:49;;;;;;;;;;;;;;;5.76;51.43;98626.64;1683857;85;20255;-77
2022/01/20 10:57:28;;;;;;;;;;;;;;;5.99;51.55;98615.23;1637400;87;20126;-76
2022/01/20 11:00:12;;;;;;;;;;;;;;;6.34;50.54;98601.86;1625544;86;20098;-76
2022/01/20 11:02:42;;;;;;;;;;;;;;;6.54;50.30;98602.12;1654426;86;20122;-78
2022/01/20 11:05:20;;;;;;;;;;;;;;;6.71;48.80;98596.53;1629796;86;20106;-78
2022/01/20 11:07:47;;;;;;;;;;;;;;;6.70;48.68;98597.64;1653915;86;20449;-78
2022/01/20 11:10:14;;;;;;;;;;;;;;;6.50;48.14;98589.43;1664579;86;20142;-77
2022/01/20 11:12:52;;;;;;;;;;;;;;;6.40;50.58;98598.67;1630438;86;20153;-79
2022/01/20 11:15:44;;;;;;;;;;;;;;;6.78;48.20;98596.89;1673945;85;20123;-75
2022/01/20 11:18:18;;;;;;;;;;;;;;;6.71;48.44;98602.79;1695707;84;20748;-75
2022/01/20 11:20:52;;;;;;;;;;;;;;;6.59;47.95;98603.36;1659104;86;20126;-73
2022/01/20 11:23:24;;;;;;;;;;;;;;;6.47;50.27;98606.41;1663691;86;20168;-75
2022/01/20 11:25:58;;;;;;;;;;;;;;;6.76;48.49;98607.30;1723904;82;20103;-76
2022/01/20 11:28:30;;;;;;;;;;;;;;;6.77;48.97;98592.55;1730047;82;20226;-76
2022/01/20 11:31:00;;;;;;;;;;;;;;;6.52;48.50;98595.38;1725695;82;21094;-76
2022/01/20 11:33:44;;;;;;;;;;;;;;;6.11;49.91;98586.88;1725516;83;20099;-75
2022/01/20 11:36:27;;;;;;;;;;;;;;;5.57;50.80;98571.52;1724200;82;20584;-76
2022/01/20 11:39:17;;;;;;;;;;;;;;;5.33;52.17;98568.23;1723466;82;20142;-77
2022/01/20 11:41:43;;;;;;;;;;;;;;;5.44;52.50;98569.07;1732610;82;20150;-77
2022/01/20 11:44:09;;;;;;;;;;;;;;;5.34;51.46;98560.32;1741179;82;21183;-77
2022/01/20 11:46:44;;;;;;;;;;;;;;;4.92;52.21;98565.82;1740957;82;20587;-75
2022/01/20 11:49:22;;;;;;;;;;;;;;;4.46;53.66;98575.41;1740728;82;20462;-77
2022/01/20 11:51:48;;;;;;;;;;;;;;;4.40;54.25;98572.53;1740578;82;20435;-76
2022/01/20 11:54:35;;;;;;;;;;;;;;;4.39;54.21;98566.84;1742586;82;20111;-76
2022/01/20 11:57:09;;;;;;;;;;;;;;;4.21;54.44;98567.70;1742194;82;21089;-75
2022/01/20 11:59:51;;;;;;;;;;;;;;;3.70;55.13;98568.53;1742197;82;20111;-77
2022/01/20 12:02:29;;;;;;;;;;;;;;;3.22;56.61;98561.90;1740830;82;20162;-77
2022/01/20 12:05:05;;;;;;;;;;;;;;;3.17;57.52;98548.95;1739742;82;20110;-76
2022/01/20 12:07:36;;;;;;;;;;;;;;;3.53;57.14;98553.31;1742350;82;20169;-75
2022/01/20 12:10:17;;;;;;;;;;;;;;;4.00;56.56;98533.86;1742329;82;20469;-76
2022/01/20 12:12:51;;;;;;;;;;;;;;;4.50;56.43;98520.71;1717290;82;20442;-75
2022/01/20 12:15:22;;;;;;;;;;;;;;;5.01;55.10;98512.88;1728950;82;20074;-76
2022/01/20 12:17:56;;;;;;;;;;;;;;;5.47;53.72;98514.58;1712467;84;20097;-76
2022/01/20 12:20:29;;;;;;;;;;;;;;;5.67;52.28;98514.66;1689916;84;20090;-76
2022/01/20 12:22:57;;;;;;;;;;;;;;;5.87;52.83;98504.06;1712446;84;21125;-76
2022/01/20 12:25:26;;;;;;;;;;;;;;;6.20;51.41;98507.91;1712966;84;20185;-76
2022/01/20 12:28:12;;;;;;;;;;;;;;;6.38;51.20;98511.50;1688630;84;20085;-77
2022/01/20 12:30:45;;;;;;;;;;;;;;;6.68;51.06;98511.24;1712692;84;20457;-75
2022/01/20 12:35:50;;;;;;;;;;;;;;;6.73;48.98;98512.47;1686865;84;23255;-76
2022/01/20 12:38:38;;;;;;;;;;;;;;;6.39;50.64;98515.28;1689919;84;20090;-76
2022/01/20 12:41:17;;;;;;;;;;;;;;;6.42;50.48;98499.66;1712945;83;20110;-76
2022/01/20 12:44:12;;;;;;;;;;;;;;;6.51;50.12;98503.80;1712340;83;20105;-77
2022/01/20 12:46:42;;;;;;;;;;;;;;;6.38;50.35;98494.59;1712588;84;20118;-74
2022/01/20 12:49:16;;;;;;;;;;;;;;;5.90;51.10;98485.77;1689820;84;21185;-75
2022/01/20 12:51:50;;;;;;;;;;;;;;;5.28;52.27;98477.43;1708437;83;21625;-76
2022/01/20 12:54:29;;;;;;;;;;;;;;;4.58;53.81;98481.96;1689140;84;20090;-76
2022/01/20 12:57:00;;;;;;;;;;;;;;;3.99;55.58;98488.25;1689787;84;20439;-76
2022/01/20 12:59:28;;;;;;;;;;;;;;;3.53;57.28;98499.04;1713035;84;20085;-77
2022/01/20 13:02:00;;;;;;;;;;;;;;;3.13;58.52;98497.20;1713284;84;21792;-76
2022/01/20 13:04:29;;;;;;;;;;;;;;;2.78;59.84;98487.66;1689194;84;20098;-75
2022/01/20 13:07:00;;;;;;;;;;;;;;;2.57;61.08;98490.36;1708573;83;20129;-76
2022/01/20 13:09:39;;;;;;;;;;;;;;;2.37;61.75;98491.94;1712057;83;20563;-76
2022/01/20 13:12:06;;;;;;;;;;;;;;;2.20;62.64;98487.00;1713259;83;20136;-76
2022/01/20 13:14:45;;;;;;;;;;;;;;;2.06;63.24;98488.22;1688842;82;20728;-76
2022/01/20 13:17:25;;;;;;;;;;;;;;;1.97;63.81;98487.22;1713142;84;20098;-77
2022/01/20 13:20:00;;;;;;;;;;;;;;;1.90;64.26;98485.39;1690023;84;20436;-77
2022/01/20 13:22:57;;;;;;;;;;;;;;;1.81;64.85;98481.68;1713102;83;20097;-78
2022/01/20 13:25:27;;;;;;;;;;;;;;;1.79;65.25;98490.08;1709282;83;20456;-78
2022/01/20 13:28:03;;;;;;;;;;;;;;;1.77;65.82;98488.75;1712656;83;21139;-78
2022/01/20 13:30:47;;;;;;;;;;;;;;;1.77;66.16;98484.69;1712924;83;20106;-76
2022/01/20 13:33:32;;;;;;;;;;;;;;;1.75;66.28;98487.69;1689800;84;20138;-78
2022/01/20 13:36:03;;;;;;;;;;;;;;;1.67;66.60;98485.61;1705875;83;20443;-77
2022/01/20 13:38:36;;;;;;;;;;;;;;;1.60;67.08;98470.25;1712832;84;20126;-76
2022/01/20 13:41:09;;;;;;;;;;;;;;;1.56;67.35;98465.14;1708628;83;21145;-76
2022/01/20 13:46:38;;;;;;;;;;;;;;;1.42;68.48;98461.47;1688944;85;20146;-75
2022/01/20 13:49:25;;;;;;;;;;;;;;;1.34;69.12;98450.70;1689163;85;20417;-77
2022/01/20 13:52:14;;;;;;;;;;;;;;;1.32;69.63;98437.47;1688430;84;20441;-77
2022/01/20 13:54:39;;;;;;;;;;;;;;;1.29;70.00;98424.52;1669586;85;20457;-74
2022/01/20 13:57:11;;;;;;;;;;;;;;;1.29;70.35;98429.11;1687560;84;20137;-76
2022/01/20 13:59:51;;;;;;;;;;;;;;;1.27;70.50;98423.99;1670296;85;20477;-76
2022/01/20 14:02:19;;;;;;;;;;;;;;;1.27;70.66;98423.19;1670351;85;20102;-76
2022/01/20 14:04:45;;;;;;;;;;;;;;;1.23;71.07;98420.23;1689118;84;20110;-76
2022/01/20 14:07:21;;;;;;;;;;;;;;;1.21;71.25;98421.06;1670621;85;20085;-76
2022/01/20 14:09:49;;;;;;;;;;;;;;;1.19;71.43;98422.43;1690501;83;20122;-74
2022/01/20 14:12:20;;;;;;;;;;;;;;;1.17;71.94;98424.61;1708120;83;20101;-75
2022/01/20 14:14:49;;;;;;;;;;;;;;;1.14;72.33;98411.69;1688820;83;20133;-76
2022/01/20 14:17:18;;;;;;;;;;;;;;;1.12;72.50;98430.89;1669955;85;20121;-75
2022/01/20 14:19:54;;;;;;;;;;;;;;;1.10;72.72;98427.66;1689058;85;21104;-75
2022/01/20 14:22:18;;;;;;;;;;;;;;;1.08;73.11;98418.22;1688840;84;20114;-76